Time;durP1;ratioP1;P1;durP2;ratioP2;P2;SDS_P1;SDS_P2;PMS_P1;PMS_P2;Temp;Humidity;BMP_temperature;BMP_pressure;BME280_temperature;BME280_humidity;BME280_pressure;Samples;Min_cycle;Max_cycle;Signal;HPM_P1;HPM_P2
2022/10/09 00:00:49;;;;;;;12.63;7.17;;;;;;;;;;5053064;28;20171;-67
2022/10/09 00:03:16;;;;;;;17.40;7.23;;;;;;;;;;5053025;28;20179;-68
2022/10/09 00:05:42;;;;;;;13.03;6.53;;;;;;;;;;5035025;28;20198;-70
2022/10/09 00:08:08;;;;;;;12.00;7.03;;;;;;;;;;5053380;28;20181;-69
2022/10/09 00:10:34;;;;;;;15.77;6.60;;;;;;;;;;5053117;28;20182;-70
2022/10/09 00:13:00;;;;;;;16.37;6.73;;;;;;;;;;5052942;28;20178;-70
2022/10/09 00:15:26;;;;;;;17.27;7.23;;;;;;;;;;5053323;28;20178;-70
2022/10/09 00:17:52;;;;;;;9.93;6.70;;;;;;;;;;5053854;28;20531;-70
2022/10/09 00:20:18;;;;;;;12.17;6.80;;;;;;;;;;5056953;28;20205;-69
2022/10/09 00:22:44;;;;;;;12.47;6.33;;;;;;;;;;5057215;28;20175;-70
2022/10/09 00:25:10;;;;;;;13.83;7.50;;;;;;;;;;5057064;28;20209;-70
2022/10/09 00:27:35;;;;;;;12.00;7.10;;;;;;;;;;5038747;28;20252;-70
2022/10/09 00:30:01;;;;;;;18.93;7.50;;;;;;;;;;5056993;28;20212;-69
2022/10/09 00:32:27;;;;;;;15.73;7.07;;;;;;;;;;5056697;28;20178;-70
2022/10/09 00:34:53;;;;;;;17.97;7.53;;;;;;;;;;5038719;28;20276;-70
2022/10/09 00:37:19;;;;;;;10.20;6.60;;;;;;;;;;5038497;28;20206;-69
2022/10/09 00:39:45;;;;;;;16.17;7.50;;;;;;;;;;5056714;28;20198;-70
2022/10/09 00:42:12;;;;;;;11.63;7.13;;;;;;;;;;5056598;28;20175;-69
2022/10/09 00:44:49;;;;;;;15.80;7.40;;;;;;;;;;5056385;28;20604;-70
2022/10/09 00:47:41;;;;;;;14.77;7.07;;;;;;;;;;5056352;28;20197;-70
2022/10/09 00:50:10;;;;;;;13.67;6.50;;;;;;;;;;5034905;28;20634;-69
2022/10/09 00:52:36;;;;;;;11.73;7.33;;;;;;;;;;5038474;28;20182;-70
2022/10/09 00:55:03;;;;;;;14.93;7.67;;;;;;;;;;5038369;28;20537;-70
2022/10/09 00:57:31;;;;;;;13.37;7.00;;;;;;;;;;5056527;28;20209;-70
2022/10/09 00:59:57;;;;;;;14.00;6.97;;;;;;;;;;5056203;28;20666;-70
2022/10/09 01:02:23;;;;;;;11.90;6.37;;;;;;;;;;5038621;28;20514;-69
2022/10/09 01:04:49;;;;;;;15.87;7.00;;;;;;;;;;5056237;28;20177;-70
2022/10/09 01:07:18;;;;;;;10.27;6.33;;;;;;;;;;5056380;28;20290;-70
2022/10/09 01:09:53;;;;;;;10.87;6.67;;;;;;;;;;5038766;28;20178;-70
2022/10/09 01:12:22;;;;;;;10.80;6.57;;;;;;;;;;5056115;28;20197;-70
2022/10/09 01:14:54;;;;;;;11.83;7.60;;;;;;;;;;5055892;28;20666;-70
2022/10/09 01:17:37;;;;;;;15.33;6.93;;;;;;;;;;5056087;28;20283;-70
2022/10/09 01:20:03;;;;;;;14.20;7.23;;;;;;;;;;5055707;28;20728;-69
2022/10/09 01:22:45;;;;;;;14.73;7.73;;;;;;;;;;5055696;28;20182;-70
2022/10/09 01:25:17;;;;;;;14.37;7.60;;;;;;;;;;5055897;28;20159;-69
2022/10/09 01:27:43;;;;;;;11.90;7.80;;;;;;;;;;5055988;28;20604;-69
2022/10/09 01:30:10;;;;;;;15.33;8.03;;;;;;;;;;5037578;28;20182;-70
2022/10/09 01:32:42;;;;;;;14.53;7.90;;;;;;;;;;5037678;28;20240;-70
2022/10/09 01:35:10;;;;;;;12.63;7.10;;;;;;;;;;5037517;28;20236;-69
2022/10/09 01:37:36;;;;;;;11.83;7.47;;;;;;;;;;5037443;28;20275;-70
2022/10/09 01:40:03;;;;;;;11.53;7.50;;;;;;;;;;5037558;28;20234;-70
2022/10/09 01:42:29;;;;;;;16.80;7.90;;;;;;;;;;5055689;28;20266;-70
2022/10/09 01:44:55;;;;;;;12.70;6.90;;;;;;;;;;5055387;28;20209;-69
2022/10/09 01:47:21;;;;;;;9.77;6.40;;;;;;;;;;5037570;28;20190;-69
2022/10/09 01:49:52;;;;;;;14.63;7.53;;;;;;;;;;5055463;28;20183;-69
2022/10/09 01:52:21;;;;;;;18.27;7.60;;;;;;;;;;5037374;28;20181;-70
2022/10/09 01:55:12;;;;;;;11.90;7.00;;;;;;;;;;5037838;28;20182;-69
2022/10/09 01:57:47;;;;;;;15.70;7.93;;;;;;;;;;5037772;28;20224;-70
2022/10/09 02:00:14;;;;;;;15.00;7.50;;;;;;;;;;5055856;28;20343;-69
2022/10/09 02:02:41;;;;;;;14.60;7.33;;;;;;;;;;5055604;28;20175;-69
2022/10/09 02:05:09;;;;;;;12.37;7.87;;;;;;;;;;5037921;28;20201;-70
2022/10/09 02:07:36;;;;;;;15.67;7.37;;;;;;;;;;5055478;28;20194;-70
2022/10/09 02:10:03;;;;;;;15.50;7.17;;;;;;;;;;5055804;28;20193;-69
2022/10/09 02:12:31;;;;;;;12.10;6.93;;;;;;;;;;5055133;28;20197;-69
2022/10/09 02:14:57;;;;;;;13.10;6.73;;;;;;;;;;5054965;28;20179;-69
2022/10/09 02:17:26;;;;;;;13.83;7.10;;;;;;;;;;5054957;28;20216;-70
2022/10/09 02:20:11;;;;;;;13.53;7.37;;;;;;;;;;5054691;28;20202;-69
2022/10/09 02:22:37;;;;;;;10.47;7.03;;;;;;;;;;5055233;28;20214;-70
2022/10/09 02:25:05;;;;;;;16.43;7.83;;;;;;;;;;5054756;28;20201;-70
2022/10/09 02:27:32;;;;;;;14.63;6.90;;;;;;;;;;5054619;28;20195;-70
2022/10/09 02:29:58;;;;;;;15.03;7.57;;;;;;;;;;5054703;28;20178;-69
2022/10/09 02:32:25;;;;;;;18.43;7.50;;;;;;;;;;5054738;28;20217;-70
2022/10/09 02:34:51;;;;;;;17.53;8.53;;;;;;;;;;5054749;28;20261;-69
2022/10/09 02:37:17;;;;;;;13.40;7.40;;;;;;;;;;5054251;28;20264;-70
2022/10/09 02:39:43;;;;;;;13.27;7.00;;;;;;;;;;5054387;28;20209;-70
2022/10/09 02:42:09;;;;;;;14.60;6.07;;;;;;;;;;5053965;28;20171;-69
2022/10/09 02:44:35;;;;;;;15.80;7.53;;;;;;;;;;5054270;28;20178;-69
2022/10/09 02:47:01;;;;;;;17.33;8.50;;;;;;;;;;5054253;28;20193;-69
2022/10/09 02:49:27;;;;;;;15.13;7.03;;;;;;;;;;5036380;28;20201;-70
2022/10/09 02:51:53;;;;;;;12.70;7.83;;;;;;;;;;5054737;28;20677;-69
2022/10/09 02:54:19;;;;;;;18.50;8.03;;;;;;;;;;5054191;28;20193;-71
2022/10/09 02:56:45;;;;;;;13.00;6.83;;;;;;;;;;5054009;28;20204;-69
2022/10/09 02:59:11;;;;;;;14.00;7.40;;;;;;;;;;5054268;28;20240;-69
2022/10/09 03:01:37;;;;;;;21.97;7.93;;;;;;;;;;5054051;28;20183;-69
2022/10/09 03:04:03;;;;;;;11.20;7.80;;;;;;;;;;5053859;28;20228;-69
2022/10/09 03:06:29;;;;;;;11.53;7.63;;;;;;;;;;5053765;28;20558;-70
2022/10/09 03:08:55;;;;;;;12.80;7.70;;;;;;;;;;5035897;28;20190;-70
2022/10/09 03:11:22;;;;;;;10.93;6.90;;;;;;;;;;5053748;28;20182;-70
2022/10/09 03:13:48;;;;;;;11.00;6.80;;;;;;;;;;5035926;28;20182;-69
2022/10/09 03:16:16;;;;;;;11.20;8.03;;;;;;;;;;5053677;28;20205;-69
2022/10/09 03:18:42;;;;;;;16.60;7.70;;;;;;;;;;5053531;28;20293;-70
2022/10/09 03:21:09;;;;;;;12.23;6.77;;;;;;;;;;5035787;28;20186;-69
2022/10/09 03:23:35;;;;;;;12.47;7.33;;;;;;;;;;5035791;28;20185;-69
2022/10/09 03:26:03;;;;;;;19.70;8.17;;;;;;;;;;5035463;28;20675;-70
2022/10/09 03:28:29;;;;;;;13.70;7.40;;;;;;;;;;5053539;28;20175;-70
2022/10/09 03:30:55;;;;;;;17.27;7.77;;;;;;;;;;5054006;28;20689;-70
2022/10/09 03:33:21;;;;;;;13.37;7.93;;;;;;;;;;5053379;28;20171;-69
2022/10/09 03:35:47;;;;;;;15.77;7.87;;;;;;;;;;5053533;28;20219;-70
2022/10/09 03:38:13;;;;;;;12.87;8.17;;;;;;;;;;5035491;28;20170;-71
2022/10/09 03:40:39;;;;;;;12.13;8.03;;;;;;;;;;5053401;28;20194;-70
2022/10/09 03:43:05;;;;;;;13.97;7.50;;;;;;;;;;5053526;28;20167;-70
2022/10/09 03:45:31;;;;;;;17.33;8.20;;;;;;;;;;5053167;28;20171;-70
2022/10/09 03:47:57;;;;;;;14.97;8.10;;;;;;;;;;5053839;28;20173;-72
2022/10/09 03:50:23;;;;;;;17.57;7.87;;;;;;;;;;5035305;28;20217;-70
2022/10/09 03:52:49;;;;;;;19.40;8.13;;;;;;;;;;5034417;28;20299;-71
2022/10/09 03:55:15;;;;;;;13.20;8.37;;;;;;;;;;5035188;28;20175;-70
2022/10/09 03:57:41;;;;;;;12.77;8.07;;;;;;;;;;5035138;28;20186;-70
2022/10/09 04:00:07;;;;;;;15.30;8.20;;;;;;;;;;5052943;28;20213;-69
2022/10/09 04:02:34;;;;;;;16.93;8.53;;;;;;;;;;5035183;28;20642;-70
2022/10/09 04:05:00;;;;;;;14.13;8.00;;;;;;;;;;5053041;28;20232;-70
2022/10/09 04:07:26;;;;;;;15.03;8.47;;;;;;;;;;5035224;28;20199;-70
2022/10/09 04:09:52;;;;;;;15.90;8.47;;;;;;;;;;5053021;28;20269;-70
2022/10/09 04:12:18;;;;;;;15.47;8.77;;;;;;;;;;5053212;28;20214;-70
2022/10/09 04:14:44;;;;;;;12.73;7.60;;;;;;;;;;5052917;28;20240;-70
2022/10/09 04:17:10;;;;;;;14.20;8.17;;;;;;;;;;5053111;28;20683;-71
2022/10/09 04:19:36;;;;;;;16.53;8.57;;;;;;;;;;5052899;28;20202;-70
2022/10/09 04:22:02;;;;;;;13.93;8.50;;;;;;;;;;5035151;28;20769;-69
2022/10/09 04:24:28;;;;;;;16.30;8.47;;;;;;;;;;5041188;28;20179;-70
2022/10/09 04:26:54;;;;;;;15.37;8.33;;;;;;;;;;5041168;28;20198;-70
2022/10/09 04:29:20;;;;;;;18.33;8.40;;;;;;;;;;5058481;28;20183;-70
2022/10/09 04:31:46;;;;;;;15.53;8.70;;;;;;;;;;5057516;28;20175;-70
2022/10/09 04:34:14;;;;;;;12.53;8.77;;;;;;;;;;5035338;28;20189;-70
2022/10/09 04:36:40;;;;;;;11.70;8.70;;;;;;;;;;5034965;28;20224;-71
2022/10/09 04:39:06;;;;;;;19.50;9.30;;;;;;;;;;5052877;28;20199;-69
2022/10/09 04:41:32;;;;;;;19.10;9.03;;;;;;;;;;5052842;28;20179;-70
2022/10/09 04:43:58;;;;;;;15.37;8.80;;;;;;;;;;5052763;28;20292;-70
2022/10/09 04:46:24;;;;;;;15.87;9.43;;;;;;;;;;5034940;28;20210;-70
2022/10/09 04:48:50;;;;;;;18.67;9.50;;;;;;;;;;5052847;28;20667;-70
2022/10/09 04:51:17;;;;;;;18.67;9.67;;;;;;;;;;5052790;28;20709;-70
2022/10/09 04:53:44;;;;;;;14.77;9.80;;;;;;;;;;5053023;28;20182;-70
2022/10/09 04:56:11;;;;;;;22.17;9.97;;;;;;;;;;5034606;28;20206;-71
2022/10/09 04:58:41;;;;;;;15.63;9.40;;;;;;;;;;5052637;28;20183;-69
2022/10/09 05:01:07;;;;;;;16.17;9.60;;;;;;;;;;5053199;28;20537;-70
2022/10/09 05:03:33;;;;;;;20.47;10.40;;;;;;;;;;5052938;28;20182;-70
2022/10/09 05:06:02;;;;;;;21.97;12.47;;;;;;;;;;5056218;28;20197;-71
2022/10/09 05:08:30;;;;;;;21.47;12.23;;;;;;;;;;5056204;28;20726;-69
2022/10/09 05:10:59;;;;;;;27.97;13.07;;;;;;;;;;5056252;28;20176;-70
2022/10/09 05:13:25;;;;;;;21.73;10.70;;;;;;;;;;5056277;28;20205;-70
2022/10/09 05:15:51;;;;;;;21.30;12.27;;;;;;;;;;5056633;28;20654;-70
2022/10/09 05:18:17;;;;;;;19.40;11.67;;;;;;;;;;5038272;28;20600;-70
2022/10/09 05:20:43;;;;;;;12.90;10.43;;;;;;;;;;5037860;28;20659;-70
2022/10/09 05:23:09;;;;;;;20.37;10.83;;;;;;;;;;5056146;28;20232;-70
2022/10/09 05:25:35;;;;;;;17.40;9.87;;;;;;;;;;5055661;28;20181;-70
2022/10/09 05:28:01;;;;;;;14.67;9.77;;;;;;;;;;5037968;28;20179;-70
2022/10/09 05:30:27;;;;;;;13.07;9.60;;;;;;;;;;5037858;28;20190;-71
2022/10/09 05:32:53;;;;;;;17.40;9.60;;;;;;;;;;5055782;28;20178;-70
2022/10/09 05:35:19;;;;;;;20.43;9.83;;;;;;;;;;5037636;28;20182;-70
2022/10/09 05:37:45;;;;;;;13.67;9.43;;;;;;;;;;5037737;28;20232;-71
2022/10/09 05:40:11;;;;;;;18.50;9.50;;;;;;;;;;5055531;28;20233;-70
2022/10/09 05:42:37;;;;;;;16.53;9.33;;;;;;;;;;5038794;28;20182;-70
2022/10/09 05:45:03;;;;;;;22.50;10.20;;;;;;;;;;5055437;28;20186;-70
2022/10/09 05:47:30;;;;;;;19.73;10.00;;;;;;;;;;5037844;28;20546;-70
2022/10/09 05:49:56;;;;;;;19.47;10.43;;;;;;;;;;5055535;28;20185;-70
2022/10/09 05:52:22;;;;;;;15.03;8.87;;;;;;;;;;5037455;28;20556;-70
2022/10/09 05:54:49;;;;;;;16.00;9.03;;;;;;;;;;5055520;28;20182;-70
2022/10/09 05:57:15;;;;;;;12.87;8.87;;;;;;;;;;5055233;28;20198;-71
2022/10/09 05:59:41;;;;;;;18.20;9.87;;;;;;;;;;5037373;28;20199;-70
2022/10/09 06:02:08;;;;;;;16.77;9.60;;;;;;;;;;5037878;28;20266;-70
2022/10/09 06:04:34;;;;;;;17.37;9.67;;;;;;;;;;5055286;28;20174;-70
2022/10/09 06:07:00;;;;;;;16.80;9.67;;;;;;;;;;5037103;28;20663;-70
2022/10/09 06:09:26;;;;;;;13.47;9.77;;;;;;;;;;5037171;28;20233;-71
2022/10/09 06:11:53;;;;;;;16.77;10.20;;;;;;;;;;5054878;28;20557;-70
2022/10/09 06:14:20;;;;;;;13.50;9.40;;;;;;;;;;5055212;28;20312;-70
2022/10/09 06:16:47;;;;;;;15.07;9.57;;;;;;;;;;5035877;28;20686;-70
2022/10/09 06:19:14;;;;;;;14.50;9.70;;;;;;;;;;5054905;28;20521;-72
2022/10/09 06:21:40;;;;;;;13.10;9.20;;;;;;;;;;5036558;28;20179;-72
2022/10/09 06:24:06;;;;;;;20.40;9.83;;;;;;;;;;5054598;28;20196;-70
2022/10/09 06:26:32;;;;;;;16.13;9.30;;;;;;;;;;5036536;28;20222;-70
2022/10/09 06:28:59;;;;;;;15.70;9.30;;;;;;;;;;5036635;28;20186;-73
2022/10/09 06:31:26;;;;;;;15.27;9.23;;;;;;;;;;5036720;28;20182;-70
2022/10/09 06:33:53;;;;;;;16.70;11.00;;;;;;;;;;5054687;28;20615;-70
2022/10/09 06:36:20;;;;;;;20.50;10.63;;;;;;;;;;5036279;28;20265;-70
2022/10/09 06:38:46;;;;;;;17.90;10.03;;;;;;;;;;5054352;28;20179;-69
2022/10/09 06:41:13;;;;;;;23.77;11.60;;;;;;;;;;5054378;28;20178;-70
2022/10/09 06:43:40;;;;;;;13.97;10.33;;;;;;;;;;5054207;28;20197;-70
2022/10/09 06:46:08;;;;;;;17.23;11.53;;;;;;;;;;5036188;28;20202;-70
2022/10/09 06:48:34;;;;;;;15.17;11.80;;;;;;;;;;5036059;28;20204;-70
2022/10/09 06:51:01;;;;;;;15.63;10.17;;;;;;;;;;5054572;28;20182;-70
2022/10/09 06:53:27;;;;;;;17.87;9.80;;;;;;;;;;5054506;28;20175;-70
2022/10/09 06:55:53;;;;;;;15.90;9.70;;;;;;;;;;5054013;28;20201;-70
2022/10/09 06:58:20;;;;;;;15.40;9.13;;;;;;;;;;5054012;28;20166;-70
2022/10/09 07:00:46;;;;;;;13.77;9.70;;;;;;;;;;5053983;28;20198;-70
2022/10/09 07:03:12;;;;;;;12.63;8.17;;;;;;;;;;5035924;28;20379;-68
2022/10/09 07:05:38;;;;;;;17.63;8.70;;;;;;;;;;5053756;28;20197;-68
2022/10/09 07:08:04;;;;;;;12.53;7.90;;;;;;;;;;5054172;28;20179;-70
2022/10/09 07:10:30;;;;;;;15.73;8.27;;;;;;;;;;5035860;28;20545;-67
2022/10/09 07:12:56;;;;;;;15.40;8.90;;;;;;;;;;5053802;28;20604;-69
2022/10/09 07:15:22;;;;;;;15.27;8.10;;;;;;;;;;5053599;28;20182;-67
2022/10/09 07:17:48;;;;;;;11.77;7.67;;;;;;;;;;5035889;28;20653;-68
2022/10/09 07:20:14;;;;;;;15.07;7.47;;;;;;;;;;5053988;28;20234;-70
2022/10/09 07:22:40;;;;;;;10.57;7.17;;;;;;;;;;5053514;28;20182;-70
2022/10/09 07:25:06;;;;;;;13.33;6.67;;;;;;;;;;5035590;28;20181;-70
2022/10/09 07:27:34;;;;;;;14.90;7.10;;;;;;;;;;5053783;28;20199;-70
2022/10/09 07:30:00;;;;;;;18.50;6.53;;;;;;;;;;5053312;28;20672;-70
2022/10/09 07:32:25;;;;;;;13.30;6.37;;;;;;;;;;5035461;28;20269;-68
2022/10/09 07:34:51;;;;;;;8.93;5.97;;;;;;;;;;5035534;28;20193;-67
2022/10/09 07:37:17;;;;;;;10.03;6.33;;;;;;;;;;5053170;28;20210;-67
2022/10/09 07:39:43;;;;;;;11.93;6.10;;;;;;;;;;5053091;28;20195;-67
2022/10/09 07:42:09;;;;;;;11.30;6.73;;;;;;;;;;5035294;28;20189;-67
2022/10/09 07:44:35;;;;;;;15.27;6.03;;;;;;;;;;5035322;28;20178;-69
2022/10/09 07:47:01;;;;;;;14.10;5.87;;;;;;;;;;5035279;28;20199;-67
2022/10/09 07:49:27;;;;;;;13.10;6.03;;;;;;;;;;5054339;28;20657;-67
2022/10/09 07:51:53;;;;;;;12.00;6.17;;;;;;;;;;5054293;28;20182;-68
2022/10/09 07:54:19;;;;;;;12.17;5.93;;;;;;;;;;5053928;28;20185;-70
2022/10/09 07:56:45;;;;;;;9.27;5.53;;;;;;;;;;5053272;28;20225;-69
2022/10/09 07:59:12;;;;;;;23.47;13.50;;;;;;;;;;5053595;28;20206;-70
2022/10/09 08:01:38;;;;;;;28.27;18.43;;;;;;;;;;5053038;28;20186;-70
2022/10/09 08:04:05;;;;;;;29.60;16.43;;;;;;;;;;5053092;28;20680;-70
2022/10/09 08:06:31;;;;;;;14.13;7.30;;;;;;;;;;5053375;28;20186;-69
2022/10/09 08:08:58;;;;;;;16.80;6.03;;;;;;;;;;5053068;28;20304;-68
2022/10/09 08:11:25;;;;;;;12.67;7.00;;;;;;;;;;5052902;28;20261;-67
2022/10/09 08:13:51;;;;;;;14.17;9.70;;;;;;;;;;5053430;28;20186;-70
2022/10/09 08:16:17;;;;;;;11.97;5.80;;;;;;;;;;5052753;28;20247;-69
2022/10/09 08:18:43;;;;;;;12.90;6.80;;;;;;;;;;5052760;28;20178;-67
2022/10/09 08:21:11;;;;;;;10.27;5.87;;;;;;;;;;5052886;28;20188;-69
2022/10/09 08:23:37;;;;;;;9.50;5.80;;;;;;;;;;5052866;28;20604;-69
2022/10/09 08:26:04;;;;;;;12.37;5.47;;;;;;;;;;5052883;28;20279;-69
2022/10/09 08:28:30;;;;;;;7.27;4.50;;;;;;;;;;5052975;28;20174;-70
2022/10/09 08:30:56;;;;;;;7.93;3.90;;;;;;;;;;5052904;28;20202;-70
2022/10/09 08:33:23;;;;;;;9.17;4.30;;;;;;;;;;5052942;28;20209;-69
2022/10/09 08:35:50;;;;;;;9.67;3.77;;;;;;;;;;5052560;28;20237;-69
2022/10/09 08:38:16;;;;;;;9.63;3.60;;;;;;;;;;5052963;28;20167;-68
2022/10/09 08:40:41;;;;;;;6.77;4.10;;;;;;;;;;5056736;28;20731;-67
2022/10/09 08:43:11;;;;;;;14.53;4.37;;;;;;;;;;5056630;28;20208;-70
2022/10/09 08:45:38;;;;;;;13.20;4.30;;;;;;;;;;5038552;28;20220;-69
2022/10/09 08:48:08;;;;;;;7.40;3.73;;;;;;;;;;5038827;28;20179;-69
2022/10/09 08:50:39;;;;;;;8.87;3.73;;;;;;;;;;5038695;28;20182;-69
2022/10/09 08:53:12;;;;;;;11.40;3.60;;;;;;;;;;5056569;28;20179;-69
2022/10/09 08:55:45;;;;;;;8.40;3.43;;;;;;;;;;5056421;28;20319;-69
2022/10/09 08:58:15;;;;;;;9.73;4.13;;;;;;;;;;5056219;28;20229;-70
2022/10/09 09:00:45;;;;;;;9.00;3.93;;;;;;;;;;5038350;28;20627;-70
2022/10/09 09:03:22;;;;;;;8.10;3.80;;;;;;;;;;5056102;28;20525;-69
2022/10/09 09:06:08;;;;;;;9.77;3.50;;;;;;;;;;5056492;28;20226;-69
2022/10/09 09:08:53;;;;;;;9.10;3.07;;;;;;;;;;5016283;28;20190;-69
2022/10/09 09:11:44;;;;;;;6.93;3.30;;;;;;;;;;5056117;28;20634;-69
2022/10/09 09:14:17;;;;;;;7.43;3.40;;;;;;;;;;5038353;28;20623;-69
2022/10/09 09:16:49;;;;;;;11.00;3.00;;;;;;;;;;5056240;28;20203;-69
2022/10/09 09:19:18;;;;;;;6.27;3.17;;;;;;;;;;5056159;28;20222;-70
2022/10/09 09:21:48;;;;;;;10.90;3.40;;;;;;;;;;5038088;28;20261;-69
2022/10/09 09:24:18;;;;;;;5.27;2.83;;;;;;;;;;5056354;28;20179;-70
2022/10/09 09:26:46;;;;;;;7.57;3.20;;;;;;;;;;5055888;28;20205;-70
2022/10/09 09:29:14;;;;;;;11.63;3.60;;;;;;;;;;5055655;28;20210;-69
2022/10/09 09:31:41;;;;;;;5.93;2.43;;;;;;;;;;5055688;28;20210;-70
2022/10/09 09:34:20;;;;;;;10.23;2.93;;;;;;;;;;5055751;28;20178;-70
2022/10/09 09:36:51;;;;;;;5.90;2.97;;;;;;;;;;5055319;28;20214;-69
2022/10/09 09:39:17;;;;;;;8.17;2.83;;;;;;;;;;5037481;28;20292;-69
2022/10/09 09:41:43;;;;;;;6.03;2.60;;;;;;;;;;5055453;28;20217;-70
2022/10/09 09:44:11;;;;;;;7.10;2.50;;;;;;;;;;5055388;28;20174;-70
2022/10/09 09:46:37;;;;;;;6.13;2.23;;;;;;;;;;5055279;28;20202;-70
2022/10/09 09:49:03;;;;;;;7.30;2.27;;;;;;;;;;5055307;28;20216;-70
2022/10/09 09:51:30;;;;;;;11.40;2.60;;;;;;;;;;5035962;28;20194;-70
2022/10/09 09:54:02;;;;;;;11.07;3.07;;;;;;;;;;5055454;28;20185;-69
2022/10/09 09:56:33;;;;;;;10.27;2.80;;;;;;;;;;5055161;28;20194;-69
2022/10/09 09:58:59;;;;;;;5.23;2.27;;;;;;;;;;5055069;28;20191;-70
2022/10/09 10:01:29;;;;;;;8.67;2.67;;;;;;;;;;5055291;28;20182;-69
2022/10/09 10:03:56;;;;;;;5.63;2.33;;;;;;;;;;5055227;28;20171;-69
2022/10/09 10:06:31;;;;;;;7.07;2.77;;;;;;;;;;5037751;28;20563;-70
2022/10/09 10:09:02;;;;;;;4.60;2.23;;;;;;;;;;5054859;28;20185;-69
2022/10/09 10:11:29;;;;;;;8.00;2.50;;;;;;;;;;5054834;28;20274;-70
2022/10/09 10:13:55;;;;;;;5.37;2.60;;;;;;;;;;5054871;28;20654;-70
2022/10/09 10:16:25;;;;;;;8.17;2.93;;;;;;;;;;5037249;28;20206;-70
2022/10/09 10:18:52;;;;;;;7.93;2.37;;;;;;;;;;5056436;28;20166;-69
2022/10/09 10:21:19;;;;;;;4.47;2.27;;;;;;;;;;5037901;28;20182;-69
2022/10/09 10:24:05;;;;;;;8.43;2.23;;;;;;;;;;5056395;28;20202;-69
2022/10/09 10:26:38;;;;;;;7.47;2.53;;;;;;;;;;5056375;28;20199;-70
2022/10/09 10:29:18;;;;;;;8.07;2.77;;;;;;;;;;5036678;28;20183;-70
2022/10/09 10:31:47;;;;;;;8.43;2.70;;;;;;;;;;5054462;28;20189;-70
2022/10/09 10:34:19;;;;;;;5.83;2.30;;;;;;;;;;5054671;28;20212;-69
2022/10/09 10:36:46;;;;;;;5.67;2.13;;;;;;;;;;5054326;28;20214;-70
2022/10/09 10:39:16;;;;;;;6.33;2.50;;;;;;;;;;5054254;28;20195;-70
2022/10/09 10:41:46;;;;;;;6.23;2.30;;;;;;;;;;5054617;28;20240;-70
2022/10/09 10:44:18;;;;;;;6.97;2.40;;;;;;;;;;5054671;28;20177;-70
2022/10/09 10:46:48;;;;;;;4.30;1.93;;;;;;;;;;5054521;28;20198;-70
2022/10/09 10:49:18;;;;;;;5.10;2.70;;;;;;;;;;5054161;28;20174;-70
2022/10/09 10:51:52;;;;;;;8.33;2.47;;;;;;;;;;5054344;28;20262;-70
2022/10/09 10:54:26;;;;;;;4.90;2.47;;;;;;;;;;5036150;28;20166;-70
2022/10/09 10:57:07;;;;;;;5.87;2.10;;;;;;;;;;5035952;28;20678;-70
2022/10/09 10:59:43;;;;;;;4.60;2.30;;;;;;;;;;5054108;28;20541;-71
2022/10/09 11:02:09;;;;;;;3.73;2.30;;;;;;;;;;5053727;28;20178;-70
2022/10/09 11:04:38;;;;;;;5.83;2.43;;;;;;;;;;5053937;28;20178;-70
2022/10/09 11:07:08;;;;;;;7.47;2.27;;;;;;;;;;5053656;28;20724;-69
2022/10/09 11:09:49;;;;;;;5.03;2.43;;;;;;;;;;5036919;28;20530;-70
2022/10/09 11:12:21;;;;;;;3.03;2.20;;;;;;;;;;5053751;28;20251;-69
2022/10/09 11:15:01;;;;;;;4.83;2.30;;;;;;;;;;5035754;28;20178;-70
2022/10/09 11:17:36;;;;;;;4.80;2.40;;;;;;;;;;5035684;28;20675;-70
2022/10/09 11:20:38;;;;;;;5.03;2.53;;;;;;;;;;5053441;28;20268;-70
2022/10/09 11:23:11;;;;;;;4.67;2.20;;;;;;;;;;4972879;28;20188;-70
2022/10/09 11:25:42;;;;;;;4.70;2.13;;;;;;;;;;5023812;28;20187;-70
2022/10/09 11:28:10;;;;;;;4.57;2.07;;;;;;;;;;5054135;28;20608;-69
2022/10/09 11:30:44;;;;;;;6.93;2.67;;;;;;;;;;5053684;28;20178;-70
2022/10/09 11:33:27;;;;;;;6.10;2.40;;;;;;;;;;5053471;28;20186;-70
2022/10/09 11:36:00;;;;;;;5.63;2.80;;;;;;;;;;5053111;28;20763;-69
2022/10/09 11:38:32;;;;;;;11.80;3.00;;;;;;;;;;5053650;28;20178;-70
2022/10/09 11:40:58;;;;;;;3.57;2.20;;;;;;;;;;5053152;28;20199;-70
2022/10/09 11:43:24;;;;;;;5.70;2.80;;;;;;;;;;5035440;28;20190;-70
2022/10/09 11:45:54;;;;;;;4.17;2.40;;;;;;;;;;5053606;28;20198;-70
2022/10/09 11:48:26;;;;;;;4.03;2.00;;;;;;;;;;5053535;28;20174;-70
2022/10/09 11:51:01;;;;;;;7.83;2.57;;;;;;;;;;5035377;28;20185;-71
2022/10/09 11:53:30;;;;;;;4.93;2.60;;;;;;;;;;5053403;28;20253;-71
2022/10/09 11:56:06;;;;;;;3.83;2.17;;;;;;;;;;5035092;28;20199;-70
2022/10/09 11:58:32;;;;;;;3.60;1.90;;;;;;;;;;5053148;28;20166;-70
2022/10/09 12:01:09;;;;;;;7.37;3.37;;;;;;;;;;5035071;28;20198;-70
2022/10/09 12:03:36;;;;;;;6.20;3.60;;;;;;;;;;5053250;28;20640;-71
2022/10/09 12:06:12;;;;;;;3.57;2.20;;;;;;;;;;5053194;28;20217;-71
2022/10/09 12:08:41;;;;;;;5.53;3.20;;;;;;;;;;5053012;28;20162;-70
2022/10/09 12:11:09;;;;;;;4.47;2.20;;;;;;;;;;5053127;28;20182;-71
2022/10/09 12:13:39;;;;;;;7.67;2.17;;;;;;;;;;5053481;28;20542;-68
2022/10/09 12:16:06;;;;;;;7.50;3.07;;;;;;;;;;5057005;28;20773;-68
2022/10/09 12:18:37;;;;;;;7.93;3.07;;;;;;;;;;5057042;28;20269;-71
2022/10/09 12:21:06;;;;;;;15.80;7.87;;;;;;;;;;5038935;28;20249;-68
2022/10/09 12:23:34;;;;;;;5.00;2.47;;;;;;;;;;5056906;28;20583;-68
2022/10/09 12:26:00;;;;;;;8.93;3.60;;;;;;;;;;5056797;28;20237;-68
2022/10/09 12:28:34;;;;;;;5.40;2.33;;;;;;;;;;5038820;28;20235;-68
2022/10/09 12:31:00;;;;;;;4.97;2.50;;;;;;;;;;5038951;28;20327;-68
2022/10/09 12:33:47;;;;;;;5.73;2.30;;;;;;;;;;5057338;28;20178;-70
2022/10/09 12:36:32;;;;;;;4.40;1.90;;;;;;;;;;5056470;28;20217;-68
2022/10/09 12:39:11;;;;;;;2.60;1.60;;;;;;;;;;5038773;28;20181;-71
2022/10/09 12:41:37;;;;;;;6.67;3.03;;;;;;;;;;5056585;28;20515;-70
2022/10/09 12:44:04;;;;;;;7.20;2.40;;;;;;;;;;5056859;28;20175;-71
2022/10/09 12:46:34;;;;;;;5.27;2.60;;;;;;;;;;5038455;28;20203;-68
2022/10/09 12:49:01;;;;;;;4.37;2.27;;;;;;;;;;5077232;22;20242;-65
2022/10/09 12:51:28;;;;;;;9.53;2.13;;;;;;;;;;5036839;28;20172;-66
2022/10/09 12:53:54;;;;;;;3.13;2.00;;;;;;;;;;5018662;28;20190;-65
2022/10/09 12:56:34;;;;;;;8.07;1.87;;;;;;;;;;5018698;28;20554;-66
2022/10/09 12:59:01;;;;;;;4.47;3.03;;;;;;;;;;5036624;28;20206;-66
2022/10/09 13:01:27;;;;;;;3.93;2.10;;;;;;;;;;5036364;28;20305;-66
2022/10/09 13:04:02;;;;;;;5.13;1.97;;;;;;;;;;5018453;28;20191;-67
2022/10/09 13:06:35;;;;;;;3.43;1.87;;;;;;;;;;5036299;28;20171;-66
2022/10/09 13:09:02;;;;;;;4.93;2.10;;;;;;;;;;5036485;28;20570;-66
2022/10/09 13:11:42;;;;;;;8.60;3.20;;;;;;;;;;5018456;28;20198;-66
2022/10/09 13:14:33;;;;;;;4.27;2.23;;;;;;;;;;5036041;28;20547;-66
2022/10/09 13:16:59;;;;;;;5.07;2.77;;;;;;;;;;5036287;28;20160;-67
2022/10/09 13:19:26;;;;;;;5.13;2.20;;;;;;;;;;5035871;28;20595;-66
2022/10/09 13:22:12;;;;;;;4.37;1.97;;;;;;;;;;5018186;28;20186;-66
2022/10/09 13:24:38;;;;;;;3.23;1.70;;;;;;;;;;5035628;28;20266;-66
2022/10/09 13:27:04;;;;;;;5.97;2.27;;;;;;;;;;5036096;28;20322;-66
2022/10/09 13:29:30;;;;;;;5.47;1.97;;;;;;;;;;5035718;28;20247;-66
2022/10/09 13:31:56;;;;;;;7.30;4.53;;;;;;;;;;5036260;28;20179;-66
2022/10/09 13:34:23;;;;;;;4.17;2.00;;;;;;;;;;5035738;28;20175;-66
2022/10/09 13:36:49;;;;;;;3.27;2.03;;;;;;;;;;5035955;28;20180;-66
2022/10/09 13:39:16;;;;;;;5.53;2.17;;;;;;;;;;5035530;28;20710;-66
2022/10/09 13:41:42;;;;;;;5.00;2.10;;;;;;;;;;5035883;28;20179;-66
2022/10/09 13:44:08;;;;;;;5.70;1.80;;;;;;;;;;5035470;28;20175;-66
2022/10/09 13:46:34;;;;;;;8.37;3.83;;;;;;;;;;5035465;28;20179;-68
2022/10/09 13:49:00;;;;;;;5.10;2.20;;;;;;;;;;5035125;28;20268;-66
2022/10/09 13:51:28;;;;;;;5.03;1.80;;;;;;;;;;5035980;28;20170;-66
2022/10/09 13:53:53;;;;;;;3.70;2.00;;;;;;;;;;5035580;28;20559;-66
2022/10/09 13:56:19;;;;;;;7.07;2.40;;;;;;;;;;5017527;28;20183;-66
2022/10/09 13:58:45;;;;;;;3.27;1.83;;;;;;;;;;5035419;28;20697;-65
2022/10/09 14:01:11;;;;;;;5.43;2.00;;;;;;;;;;5035281;28;20191;-63
2022/10/09 14:03:37;;;;;;;4.43;2.77;;;;;;;;;;5035157;28;20205;-66
2022/10/09 14:06:03;;;;;;;4.67;1.70;;;;;;;;;;5035074;28;20225;-67
2022/10/09 14:08:30;;;;;;;3.47;1.90;;;;;;;;;;5035366;28;20179;-66
2022/10/09 14:10:58;;;;;;;3.10;1.77;;;;;;;;;;5034895;28;20199;-65
2022/10/09 14:13:24;;;;;;;4.60;1.80;;;;;;;;;;5034979;28;20175;-67
2022/10/09 14:15:51;;;;;;;4.50;2.30;;;;;;;;;;5017093;28;20179;-66
2022/10/09 14:18:17;;;;;;;4.87;1.97;;;;;;;;;;5035162;28;20171;-66
2022/10/09 14:20:44;;;;;;;9.67;5.10;;;;;;;;;;5016855;28;20278;-66
2022/10/09 14:23:10;;;;;;;3.20;1.80;;;;;;;;;;5017130;28;20274;-71
2022/10/09 14:25:36;;;;;;;2.70;1.57;;;;;;;;;;5034665;28;20202;-66
2022/10/09 14:28:02;;;;;;;2.37;1.80;;;;;;;;;;5034812;28;20179;-66
2022/10/09 14:30:28;;;;;;;3.13;1.80;;;;;;;;;;5035135;28;20282;-67
2022/10/09 14:32:54;;;;;;;4.40;1.87;;;;;;;;;;5034900;28;20207;-66
2022/10/09 14:35:20;;;;;;;4.83;2.00;;;;;;;;;;5035045;28;20187;-66
2022/10/09 14:37:46;;;;;;;3.53;2.00;;;;;;;;;;5016015;28;20552;-67
2022/10/09 14:40:12;;;;;;;3.50;1.70;;;;;;;;;;5016510;28;20207;-66